sensor_id;sensor_type;location;lat;lon;timestamp;P1;durP1;ratioP1;P2;durP2;ratioP2
73023;SDS011;61199;47.526;8.538;2023-04-25T00:01:39;14.00;;;4.03;;
73023;SDS011;61199;47.526;8.538;2023-04-25T00:04:06;14.77;;;4.50;;
73023;SDS011;61199;47.526;8.538;2023-04-25T00:06:36;14.53;;;4.70;;
73023;SDS011;61199;47.526;8.538;2023-04-25T00:09:03;10.47;;;3.93;;
73023;SDS011;61199;47.526;8.538;2023-04-25T00:11:33;11.30;;;4.07;;
73023;SDS011;61199;47.526;8.538;2023-04-25T00:14:00;8.23;;;3.80;;
73023;SDS011;61199;47.526;8.538;2023-04-25T00:16:28;7.23;;;4.20;;
73023;SDS011;61199;47.526;8.538;2023-04-25T00:18:56;7.80;;;3.80;;
73023;SDS011;61199;47.526;8.538;2023-04-25T00:21:24;10.63;;;4.40;;
73023;SDS011;61199;47.526;8.538;2023-04-25T00:23:55;6.53;;;3.77;;
73023;SDS011;61199;47.526;8.538;2023-04-25T00:26:21;7.17;;;4.23;;
73023;SDS011;61199;47.526;8.538;2023-04-25T00:28:48;7.10;;;3.70;;
73023;SDS011;61199;47.526;8.538;2023-04-25T00:31:14;6.27;;;3.97;;
73023;SDS011;61199;47.526;8.538;2023-04-25T00:33:41;11.83;;;4.17;;
73023;SDS011;61199;47.526;8.538;2023-04-25T00:36:07;9.63;;;4.00;;
73023;SDS011;61199;47.526;8.538;2023-04-25T00:38:34;8.10;;;3.73;;
73023;SDS011;61199;47.526;8.538;2023-04-25T00:41:01;8.73;;;4.17;;
73023;SDS011;61199;47.526;8.538;2023-04-25T00:43:28;5.13;;;3.73;;
73023;SDS011;61199;47.526;8.538;2023-04-25T00:45:56;9.43;;;3.83;;
73023;SDS011;61199;47.526;8.538;2023-04-25T00:48:23;10.37;;;3.40;;
73023;SDS011;61199;47.526;8.538;2023-04-25T00:50:51;7.83;;;3.60;;
73023;SDS011;61199;47.526;8.538;2023-04-25T00:53:23;6.03;;;3.57;;
73023;SDS011;61199;47.526;8.538;2023-04-25T00:55:51;6.93;;;3.50;;
73023;SDS011;61199;47.526;8.538;2023-04-25T00:58:19;13.10;;;4.13;;
73023;SDS011;61199;47.526;8.538;2023-04-25T01:00:49;13.13;;;3.30;;
73023;SDS011;61199;47.526;8.538;2023-04-25T01:03:18;7.33;;;3.23;;
73023;SDS011;61199;47.526;8.538;2023-04-25T01:05:46;6.57;;;2.70;;
73023;SDS011;61199;47.526;8.538;2023-04-25T01:08:14;9.93;;;3.90;;
73023;SDS011;61199;47.526;8.538;2023-04-25T01:10:40;11.53;;;3.40;;
73023;SDS011;61199;47.526;8.538;2023-04-25T01:13:07;10.13;;;3.50;;
73023;SDS011;61199;47.526;8.538;2023-04-25T01:15:34;8.30;;;2.63;;
73023;SDS011;61199;47.526;8.538;2023-04-25T01:18:02;9.40;;;2.83;;
73023;SDS011;61199;47.526;8.538;2023-04-25T01:20:30;5.13;;;2.40;;
73023;SDS011;61199;47.526;8.538;2023-04-25T01:22:58;11.43;;;3.10;;
73023;SDS011;61199;47.526;8.538;2023-04-25T01:25:24;4.67;;;2.50;;
73023;SDS011;61199;47.526;8.538;2023-04-25T01:27:51;4.03;;;2.70;;
73023;SDS011;61199;47.526;8.538;2023-04-25T01:30:18;8.80;;;2.50;;
73023;SDS011;61199;47.526;8.538;2023-04-25T01:32:45;6.50;;;2.53;;
73023;SDS011;61199;47.526;8.538;2023-04-25T01:35:12;4.80;;;2.70;;
73023;SDS011;61199;47.526;8.538;2023-04-25T01:37:39;5.40;;;2.33;;
73023;SDS011;61199;47.526;8.538;2023-04-25T01:40:07;4.70;;;2.80;;
73023;SDS011;61199;47.526;8.538;2023-04-25T01:42:36;10.10;;;3.77;;
73023;SDS011;61199;47.526;8.538;2023-04-25T01:45:07;7.63;;;3.73;;
73023;SDS011;61199;47.526;8.538;2023-04-25T01:47:34;9.73;;;3.17;;
73023;SDS011;61199;47.526;8.538;2023-04-25T01:50:02;5.57;;;3.13;;
73023;SDS011;61199;47.526;8.538;2023-04-25T01:52:29;9.83;;;3.00;;
73023;SDS011;61199;47.526;8.538;2023-04-25T01:54:56;4.40;;;2.67;;
73023;SDS011;61199;47.526;8.538;2023-04-25T01:57:23;5.87;;;2.90;;
73023;SDS011;61199;47.526;8.538;2023-04-25T01:59:50;4.33;;;2.80;;
73023;SDS011;61199;47.526;8.538;2023-04-25T02:02:17;6.60;;;2.63;;
73023;SDS011;61199;47.526;8.538;2023-04-25T02:04:43;12.63;;;3.17;;
73023;SDS011;61199;47.526;8.538;2023-04-25T02:07:10;13.30;;;3.20;;
73023;SDS011;61199;47.526;8.538;2023-04-25T02:09:36;4.73;;;3.00;;
73023;SDS011;61199;47.526;8.538;2023-04-25T02:12:03;7.27;;;2.90;;
73023;SDS011;61199;47.526;8.538;2023-04-25T02:14:29;6.03;;;3.13;;
73023;SDS011;61199;47.526;8.538;2023-04-25T02:16:56;8.60;;;2.20;;
73023;SDS011;61199;47.526;8.538;2023-04-25T02:19:23;6.03;;;2.37;;
73023;SDS011;61199;47.526;8.538;2023-04-25T02:21:49;5.40;;;2.50;;
73023;SDS011;61199;47.526;8.538;2023-04-25T02:24:16;9.30;;;3.30;;
73023;SDS011;61199;47.526;8.538;2023-04-25T02:26:42;7.97;;;3.33;;
73023;SDS011;61199;47.526;8.538;2023-04-25T02:29:10;8.77;;;3.30;;
73023;SDS011;61199;47.526;8.538;2023-04-25T02:31:36;7.80;;;2.87;;
73023;SDS011;61199;47.526;8.538;2023-04-25T02:34:02;10.17;;;3.40;;
73023;SDS011;61199;47.526;8.538;2023-04-25T02:36:29;6.50;;;3.20;;
73023;SDS011;61199;47.526;8.538;2023-04-25T02:38:58;17.97;;;2.87;;
73023;SDS011;61199;47.526;8.538;2023-04-25T02:41:24;4.20;;;2.60;;
73023;SDS011;61199;47.526;8.538;2023-04-25T02:43:51;6.87;;;2.90;;
73023;SDS011;61199;47.526;8.538;2023-04-25T02:46:17;9.43;;;3.13;;
73023;SDS011;61199;47.526;8.538;2023-04-25T02:49:03;7.53;;;3.30;;
73023;SDS011;61199;47.526;8.538;2023-04-25T02:51:29;5.03;;;2.90;;
73023;SDS011;61199;47.526;8.538;2023-04-25T02:53:56;6.63;;;3.90;;
73023;SDS011;61199;47.526;8.538;2023-04-25T02:56:22;6.67;;;3.30;;
73023;SDS011;61199;47.526;8.538;2023-04-25T02:58:49;8.53;;;3.70;;
73023;SDS011;61199;47.526;8.538;2023-04-25T03:01:15;6.00;;;3.00;;
73023;SDS011;61199;47.526;8.538;2023-04-25T03:03:41;9.07;;;3.60;;
73023;SDS011;61199;47.526;8.538;2023-04-25T03:06:08;6.23;;;3.13;;
73023;SDS011;61199;47.526;8.538;2023-04-25T03:08:34;10.77;;;3.70;;
73023;SDS011;61199;47.526;8.538;2023-04-25T03:11:01;7.00;;;2.87;;
73023;SDS011;61199;47.526;8.538;2023-04-25T03:13:27;6.37;;;2.83;;
73023;SDS011;61199;47.526;8.538;2023-04-25T03:15:55;3.30;;;2.40;;
73023;SDS011;61199;47.526;8.538;2023-04-25T03:18:22;6.10;;;3.33;;
73023;SDS011;61199;47.526;8.538;2023-04-25T03:20:48;11.37;;;3.30;;
73023;SDS011;61199;47.526;8.538;2023-04-25T03:23:15;4.10;;;2.63;;
73023;SDS011;61199;47.526;8.538;2023-04-25T03:25:41;9.50;;;3.17;;
73023;SDS011;61199;47.526;8.538;2023-04-25T03:28:07;9.50;;;3.10;;
73023;SDS011;61199;47.526;8.538;2023-04-25T03:30:34;6.63;;;3.30;;
73023;SDS011;61199;47.526;8.538;2023-04-25T03:33:00;7.13;;;2.93;;
73023;SDS011;61199;47.526;8.538;2023-04-25T03:35:27;7.63;;;3.33;;
73023;SDS011;61199;47.526;8.538;2023-04-25T03:37:53;8.40;;;3.77;;
73023;SDS011;61199;47.526;8.538;2023-04-25T03:40:20;8.07;;;3.17;;
73023;SDS011;61199;47.526;8.538;2023-04-25T03:42:46;5.87;;;2.97;;
73023;SDS011;61199;47.526;8.538;2023-04-25T03:45:12;4.80;;;3.03;;
73023;SDS011;61199;47.526;8.538;2023-04-25T03:47:39;6.57;;;3.70;;
73023;SDS011;61199;47.526;8.538;2023-04-25T03:50:05;5.30;;;3.50;;
73023;SDS011;61199;47.526;8.538;2023-04-25T03:52:32;6.93;;;3.20;;
73023;SDS011;61199;47.526;8.538;2023-04-25T03:54:58;8.33;;;3.53;;
73023;SDS011;61199;47.526;8.538;2023-04-25T03:57:25;13.23;;;4.20;;
73023;SDS011;61199;47.526;8.538;2023-04-25T03:59:51;8.93;;;4.43;;
73023;SDS011;61199;47.526;8.538;2023-04-25T04:02:18;10.33;;;4.27;;
73023;SDS011;61199;47.526;8.538;2023-04-25T04:04:44;9.03;;;3.80;;
73023;SDS011;61199;47.526;8.538;2023-04-25T04:07:11;7.20;;;3.70;;
73023;SDS011;61199;47.526;8.538;2023-04-25T04:09:38;7.00;;;4.20;;
73023;SDS011;61199;47.526;8.538;2023-04-25T04:12:04;10.80;;;3.57;;
73023;SDS011;61199;47.526;8.538;2023-04-25T04:14:31;7.60;;;3.63;;
73023;SDS011;61199;47.526;8.538;2023-04-25T04:16:57;9.97;;;4.20;;
73023;SDS011;61199;47.526;8.538;2023-04-25T04:19:24;11.33;;;3.70;;
73023;SDS011;61199;47.526;8.538;2023-04-25T04:21:50;10.80;;;4.30;;
73023;SDS011;61199;47.526;8.538;2023-04-25T04:24:17;17.83;;;4.90;;
73023;SDS011;61199;47.526;8.538;2023-04-25T04:26:43;10.80;;;4.20;;
73023;SDS011;61199;47.526;8.538;2023-04-25T04:29:11;9.20;;;4.47;;
73023;SDS011;61199;47.526;8.538;2023-04-25T04:31:37;10.77;;;4.10;;
73023;SDS011;61199;47.526;8.538;2023-04-25T04:34:03;15.03;;;4.40;;
73023;SDS011;61199;47.526;8.538;2023-04-25T04:36:30;10.63;;;4.50;;
73023;SDS011;61199;47.526;8.538;2023-04-25T04:38:57;15.07;;;4.60;;
73023;SDS011;61199;47.526;8.538;2023-04-25T04:41:23;12.00;;;4.23;;
73023;SDS011;61199;47.526;8.538;2023-04-25T04:43:49;10.90;;;4.13;;
73023;SDS011;61199;47.526;8.538;2023-04-25T04:46:16;9.50;;;3.60;;
73023;SDS011;61199;47.526;8.538;2023-04-25T04:48:44;11.53;;;4.27;;
73023;SDS011;61199;47.526;8.538;2023-04-25T04:51:11;11.83;;;4.10;;
73023;SDS011;61199;47.526;8.538;2023-04-25T04:53:37;6.53;;;3.30;;
73023;SDS011;61199;47.526;8.538;2023-04-25T04:56:04;8.50;;;3.43;;
73023;SDS011;61199;47.526;8.538;2023-04-25T04:58:30;11.20;;;4.47;;
73023;SDS011;61199;47.526;8.538;2023-04-25T05:00:57;11.40;;;4.10;;
73023;SDS011;61199;47.526;8.538;2023-04-25T05:03:23;13.73;;;4.20;;
73023;SDS011;61199;47.526;8.538;2023-04-25T05:05:50;7.83;;;4.50;;
73023;SDS011;61199;47.526;8.538;2023-04-25T05:08:16;14.40;;;4.90;;
73023;SDS011;61199;47.526;8.538;2023-04-25T05:10:42;9.10;;;4.93;;
73023;SDS011;61199;47.526;8.538;2023-04-25T05:13:09;9.50;;;4.97;;
73023;SDS011;61199;47.526;8.538;2023-04-25T05:15:35;12.43;;;5.83;;
73023;SDS011;61199;47.526;8.538;2023-04-25T05:18:01;22.30;;;5.47;;
73023;SDS011;61199;47.526;8.538;2023-04-25T05:20:28;13.67;;;4.63;;
73023;SDS011;61199;47.526;8.538;2023-04-25T05:22:55;14.73;;;4.97;;
73023;SDS011;61199;47.526;8.538;2023-04-25T05:25:21;12.33;;;4.27;;
73023;SDS011;61199;47.526;8.538;2023-04-25T05:27:47;11.07;;;4.83;;
73023;SDS011;61199;47.526;8.538;2023-04-25T05:30:14;9.43;;;4.63;;
73023;SDS011;61199;47.526;8.538;2023-04-25T05:32:40;10.60;;;4.37;;
73023;SDS011;61199;47.526;8.538;2023-04-25T05:35:07;9.00;;;5.40;;
73023;SDS011;61199;47.526;8.538;2023-04-25T05:37:34;7.37;;;4.30;;
73023;SDS011;61199;47.526;8.538;2023-04-25T05:40:01;11.67;;;5.20;;
73023;SDS011;61199;47.526;8.538;2023-04-25T05:42:30;8.13;;;4.53;;
73023;SDS011;61199;47.526;8.538;2023-04-25T05:44:56;9.87;;;5.23;;
73023;SDS011;61199;47.526;8.538;2023-04-25T05:47:23;19.00;;;4.77;;
73023;SDS011;61199;47.526;8.538;2023-04-25T05:49:49;9.87;;;4.90;;
73023;SDS011;61199;47.526;8.538;2023-04-25T05:52:16;19.70;;;4.87;;
73023;SDS011;61199;47.526;8.538;2023-04-25T05:54:42;15.13;;;5.13;;
73023;SDS011;61199;47.526;8.538;2023-04-25T05:57:08;10.43;;;4.90;;
73023;SDS011;61199;47.526;8.538;2023-04-25T05:59:45;12.70;;;4.83;;
73023;SDS011;61199;47.526;8.538;2023-04-25T06:02:12;8.77;;;4.47;;
73023;SDS011;61199;47.526;8.538;2023-04-25T06:04:38;10.93;;;4.70;;
73023;SDS011;61199;47.526;8.538;2023-04-25T06:07:05;9.40;;;4.57;;
73023;SDS011;61199;47.526;8.538;2023-04-25T06:09:31;15.00;;;4.93;;
73023;SDS011;61199;47.526;8.538;2023-04-25T06:11:58;9.73;;;5.17;;
73023;SDS011;61199;47.526;8.538;2023-04-25T06:14:24;15.73;;;4.93;;
73023;SDS011;61199;47.526;8.538;2023-04-25T06:16:54;11.43;;;5.67;;
73023;SDS011;61199;47.526;8.538;2023-04-25T06:19:20;26.60;;;6.80;;
73023;SDS011;61199;47.526;8.538;2023-04-25T06:21:47;28.17;;;6.60;;
73023;SDS011;61199;47.526;8.538;2023-04-25T06:24:13;13.93;;;5.60;;
73023;SDS011;61199;47.526;8.538;2023-04-25T06:26:39;10.10;;;4.10;;
73023;SDS011;61199;47.526;8.538;2023-04-25T06:29:06;11.97;;;4.87;;
73023;SDS011;61199;47.526;8.538;2023-04-25T06:31:32;8.37;;;4.13;;
73023;SDS011;61199;47.526;8.538;2023-04-25T06:33:59;3.83;;;3.03;;
73023;SDS011;61199;47.526;8.538;2023-04-25T06:36:26;7.50;;;3.53;;
73023;SDS011;61199;47.526;8.538;2023-04-25T06:38:53;5.70;;;3.17;;
73023;SDS011;61199;47.526;8.538;2023-04-25T06:41:20;7.57;;;3.43;;
73023;SDS011;61199;47.526;8.538;2023-04-25T06:43:47;7.30;;;3.10;;
73023;SDS011;61199;47.526;8.538;2023-04-25T06:46:13;7.77;;;3.50;;
73023;SDS011;61199;47.526;8.538;2023-04-25T06:48:39;7.80;;;3.03;;
73023;SDS011;61199;47.526;8.538;2023-04-25T06:51:06;7.37;;;3.30;;
73023;SDS011;61199;47.526;8.538;2023-04-25T06:53:32;14.97;;;3.67;;
73023;SDS011;61199;47.526;8.538;2023-04-25T06:55:58;8.30;;;2.60;;
73023;SDS011;61199;47.526;8.538;2023-04-25T06:58:25;5.97;;;3.10;;
73023;SDS011;61199;47.526;8.538;2023-04-25T07:00:52;5.70;;;3.43;;
73023;SDS011;61199;47.526;8.538;2023-04-25T07:03:18;4.07;;;2.70;;
73023;SDS011;61199;47.526;8.538;2023-04-25T07:05:45;6.77;;;2.60;;
73023;SDS011;61199;47.526;8.538;2023-04-25T07:08:12;7.43;;;3.57;;
73023;SDS011;61199;47.526;8.538;2023-04-25T07:10:38;11.23;;;3.57;;
73023;SDS011;61199;47.526;8.538;2023-04-25T07:13:05;8.70;;;3.97;;
73023;SDS011;61199;47.526;8.538;2023-04-25T07:15:31;9.43;;;3.80;;
73023;SDS011;61199;47.526;8.538;2023-04-25T07:17:57;10.27;;;4.87;;
73023;SDS011;61199;47.526;8.538;2023-04-25T07:20:24;6.90;;;3.80;;
73023;SDS011;61199;47.526;8.538;2023-04-25T07:22:50;8.60;;;4.20;;
73023;SDS011;61199;47.526;8.538;2023-04-25T07:25:17;8.73;;;4.00;;
73023;SDS011;61199;47.526;8.538;2023-04-25T07:27:43;7.90;;;4.30;;
73023;SDS011;61199;47.526;8.538;2023-04-25T07:30:10;6.83;;;3.90;;
73023;SDS011;61199;47.526;8.538;2023-04-25T07:32:38;9.00;;;4.20;;
73023;SDS011;61199;47.526;8.538;2023-04-25T07:35:05;10.13;;;4.07;;
73023;SDS011;61199;47.526;8.538;2023-04-25T07:37:33;9.60;;;4.03;;
73023;SDS011;61199;47.526;8.538;2023-04-25T07:40:01;7.87;;;4.87;;
73023;SDS011;61199;47.526;8.538;2023-04-25T07:42:30;6.37;;;4.30;;
73023;SDS011;61199;47.526;8.538;2023-04-25T07:44:56;6.63;;;4.13;;
73023;SDS011;61199;47.526;8.538;2023-04-25T07:47:23;8.30;;;3.30;;
73023;SDS011;61199;47.526;8.538;2023-04-25T07:49:50;10.53;;;3.67;;
73023;SDS011;61199;47.526;8.538;2023-04-25T07:52:16;11.97;;;4.13;;
73023;SDS011;61199;47.526;8.538;2023-04-25T07:54:43;5.30;;;3.50;;
73023;SDS011;61199;47.526;8.538;2023-04-25T07:57:09;4.97;;;2.93;;
73023;SDS011;61199;47.526;8.538;2023-04-25T07:59:36;12.03;;;3.80;;
73023;SDS011;61199;47.526;8.538;2023-04-25T08:02:02;6.03;;;3.47;;
73023;SDS011;61199;47.526;8.538;2023-04-25T08:04:28;3.93;;;3.10;;
73023;SDS011;61199;47.526;8.538;2023-04-25T08:06:55;9.13;;;3.50;;
73023;SDS011;61199;47.526;8.538;2023-04-25T08:09:21;6.50;;;4.17;;
73023;SDS011;61199;47.526;8.538;2023-04-25T08:11:48;4.90;;;3.60;;
73023;SDS011;61199;47.526;8.538;2023-04-25T08:14:15;10.20;;;3.33;;
73023;SDS011;61199;47.526;8.538;2023-04-25T08:16:41;6.87;;;3.87;;
73023;SDS011;61199;47.526;8.538;2023-04-25T08:19:09;5.03;;;3.77;;
73023;SDS011;61199;47.526;8.538;2023-04-25T08:21:36;5.33;;;3.50;;
73023;SDS011;61199;47.526;8.538;2023-04-25T08:24:03;5.70;;;3.40;;
73023;SDS011;61199;47.526;8.538;2023-04-25T08:26:31;7.33;;;3.80;;
73023;SDS011;61199;47.526;8.538;2023-04-25T08:28:58;11.70;;;4.07;;
73023;SDS011;61199;47.526;8.538;2023-04-25T08:31:24;7.37;;;4.33;;
73023;SDS011;61199;47.526;8.538;2023-04-25T08:33:51;7.57;;;5.57;;
73023;SDS011;61199;47.526;8.538;2023-04-25T08:36:18;8.80;;;5.27;;
73023;SDS011;61199;47.526;8.538;2023-04-25T08:39:04;8.40;;;5.80;;
73023;SDS011;61199;47.526;8.538;2023-04-25T08:41:30;10.60;;;5.90;;
73023;SDS011;61199;47.526;8.538;2023-04-25T08:43:57;8.87;;;6.00;;
73023;SDS011;61199;47.526;8.538;2023-04-25T08:46:26;6.80;;;4.20;;
73023;SDS011;61199;47.526;8.538;2023-04-25T08:48:53;8.30;;;4.20;;
73023;SDS011;61199;47.526;8.538;2023-04-25T08:51:24;7.80;;;4.83;;
73023;SDS011;61199;47.526;8.538;2023-04-25T08:53:54;7.07;;;4.70;;
73023;SDS011;61199;47.526;8.538;2023-04-25T08:56:27;4.23;;;3.00;;
73023;SDS011;61199;47.526;8.538;2023-04-25T08:58:54;7.37;;;3.37;;
73023;SDS011;61199;47.526;8.538;2023-04-25T09:01:21;4.90;;;2.23;;
73023;SDS011;61199;47.526;8.538;2023-04-25T09:03:48;3.63;;;1.93;;
73023;SDS011;61199;47.526;8.538;2023-04-25T09:06:15;4.40;;;2.23;;
73023;SDS011;61199;47.526;8.538;2023-04-25T09:08:43;1.73;;;1.47;;
73023;SDS011;61199;47.526;8.538;2023-04-25T09:11:09;3.90;;;1.80;;
73023;SDS011;61199;47.526;8.538;2023-04-25T09:13:36;1.80;;;1.33;;
73023;SDS011;61199;47.526;8.538;2023-04-25T09:16:02;2.03;;;1.30;;
73023;SDS011;61199;47.526;8.538;2023-04-25T09:18:32;4.60;;;1.67;;
73023;SDS011;61199;47.526;8.538;2023-04-25T09:21:12;2.00;;;1.50;;
73023;SDS011;61199;47.526;8.538;2023-04-25T09:23:44;3.90;;;1.80;;
73023;SDS011;61199;47.526;8.538;2023-04-25T09:26:20;2.00;;;1.30;;
73023;SDS011;61199;47.526;8.538;2023-04-25T09:28:47;2.23;;;1.57;;
73023;SDS011;61199;47.526;8.538;2023-04-25T09:31:22;1.63;;;1.30;;
73023;SDS011;61199;47.526;8.538;2023-04-25T09:33:50;2.73;;;1.80;;
73023;SDS011;61199;47.526;8.538;2023-04-25T09:36:27;3.07;;;1.40;;
73023;SDS011;61199;47.526;8.538;2023-04-25T09:38:54;5.23;;;1.60;;
73023;SDS011;61199;47.526;8.538;2023-04-25T09:41:24;2.17;;;1.47;;
73023;SDS011;61199;47.526;8.538;2023-04-25T09:43:51;2.33;;;1.40;;
73023;SDS011;61199;47.526;8.538;2023-04-25T09:46:17;3.87;;;1.47;;
73023;SDS011;61199;47.526;8.538;2023-04-25T09:48:50;7.13;;;1.50;;
73023;SDS011;61199;47.526;8.538;2023-04-25T09:51:17;1.93;;;1.27;;
73023;SDS011;61199;47.526;8.538;2023-04-25T09:53:44;2.43;;;1.40;;
73023;SDS011;61199;47.526;8.538;2023-04-25T09:56:18;4.07;;;1.60;;
73023;SDS011;61199;47.526;8.538;2023-04-25T09:58:46;3.17;;;1.60;;
73023;SDS011;61199;47.526;8.538;2023-04-25T10:01:13;3.27;;;1.90;;
73023;SDS011;61199;47.526;8.538;2023-04-25T10:03:42;2.70;;;1.90;;
73023;SDS011;61199;47.526;8.538;2023-04-25T10:06:14;2.50;;;1.73;;
73023;SDS011;61199;47.526;8.538;2023-04-25T10:08:45;5.43;;;1.93;;
73023;SDS011;61199;47.526;8.538;2023-04-25T10:11:17;5.50;;;1.70;;
73023;SDS011;61199;47.526;8.538;2023-04-25T10:13:44;2.20;;;1.57;;
73023;SDS011;61199;47.526;8.538;2023-04-25T10:16:11;5.60;;;1.37;;
73023;SDS011;61199;47.526;8.538;2023-04-25T10:18:38;3.83;;;1.53;;
73023;SDS011;61199;47.526;8.538;2023-04-25T10:21:04;1.60;;;1.30;;
73023;SDS011;61199;47.526;8.538;2023-04-25T10:23:32;2.80;;;1.40;;
73023;SDS011;61199;47.526;8.538;2023-04-25T10:26:00;1.60;;;1.30;;
73023;SDS011;61199;47.526;8.538;2023-04-25T10:28:27;3.33;;;1.37;;
73023;SDS011;61199;47.526;8.538;2023-04-25T10:31:04;6.90;;;1.60;;
73023;SDS011;61199;47.526;8.538;2023-04-25T10:33:36;3.07;;;1.40;;
73023;SDS011;61199;47.526;8.538;2023-04-25T10:36:14;2.10;;;1.43;;
73023;SDS011;61199;47.526;8.538;2023-04-25T10:38:43;1.60;;;1.00;;
73023;SDS011;61199;47.526;8.538;2023-04-25T10:41:11;3.20;;;1.30;;
73023;SDS011;61199;47.526;8.538;2023-04-25T10:43:40;2.40;;;1.57;;
73023;SDS011;61199;47.526;8.538;2023-04-25T10:48:51;2.23;;;1.30;;
73023;SDS011;61199;47.526;8.538;2023-04-25T10:51:20;3.07;;;1.33;;
73023;SDS011;61199;47.526;8.538;2023-04-25T10:56:21;1.80;;;1.50;;
73023;SDS011;61199;47.526;8.538;2023-04-25T10:58:49;1.70;;;1.10;;
73023;SDS011;61199;47.526;8.538;2023-04-25T11:01:21;1.90;;;1.33;;
73023;SDS011;61199;47.526;8.538;2023-04-25T11:03:57;2.40;;;1.37;;
73023;SDS011;61199;47.526;8.538;2023-04-25T11:09:11;1.70;;;1.43;;
73023;SDS011;61199;47.526;8.538;2023-04-25T11:11:41;3.10;;;1.63;;
73023;SDS011;61199;47.526;8.538;2023-04-25T11:14:07;2.90;;;1.33;;
73023;SDS011;61199;47.526;8.538;2023-04-25T11:16:34;2.10;;;1.20;;
73023;SDS011;61199;47.526;8.538;2023-04-25T11:19:02;1.53;;;1.20;;
73023;SDS011;61199;47.526;8.538;2023-04-25T11:21:29;5.83;;;1.30;;
73023;SDS011;61199;47.526;8.538;2023-04-25T11:23:57;2.13;;;1.10;;
73023;SDS011;61199;47.526;8.538;2023-04-25T11:26:25;1.53;;;1.00;;
73023;SDS011;61199;47.526;8.538;2023-04-25T11:28:52;2.00;;;1.17;;
73023;SDS011;61199;47.526;8.538;2023-04-25T11:31:24;6.83;;;1.73;;
73023;SDS011;61199;47.526;8.538;2023-04-25T11:33:52;11.70;;;1.40;;
73023;SDS011;61199;47.526;8.538;2023-04-25T11:36:22;1.73;;;1.23;;
73023;SDS011;61199;47.526;8.538;2023-04-25T11:38:53;2.60;;;1.47;;
73023;SDS011;61199;47.526;8.538;2023-04-25T11:41:20;2.40;;;1.30;;
73023;SDS011;61199;47.526;8.538;2023-04-25T11:43:48;2.10;;;1.10;;
73023;SDS011;61199;47.526;8.538;2023-04-25T11:46:15;2.20;;;1.13;;
73023;SDS011;61199;47.526;8.538;2023-04-25T11:48:42;6.53;;;2.13;;
73023;SDS011;61199;47.526;8.538;2023-04-25T11:51:09;5.03;;;1.57;;
73023;SDS011;61199;47.526;8.538;2023-04-25T11:53:36;6.33;;;1.90;;
73023;SDS011;61199;47.526;8.538;2023-04-25T11:56:10;2.50;;;1.33;;
73023;SDS011;61199;47.526;8.538;2023-04-25T11:59:00;3.23;;;1.77;;
73023;SDS011;61199;47.526;8.538;2023-04-25T12:01:31;4.47;;;1.80;;
73023;SDS011;61199;47.526;8.538;2023-04-25T12:04:14;4.17;;;1.90;;
73023;SDS011;61199;47.526;8.538;2023-04-25T12:06:42;2.13;;;1.40;;
73023;SDS011;61199;47.526;8.538;2023-04-25T12:09:11;3.00;;;1.63;;
73023;SDS011;61199;47.526;8.538;2023-04-25T12:11:45;4.97;;;2.33;;
73023;SDS011;61199;47.526;8.538;2023-04-25T12:14:26;3.30;;;2.30;;
73023;SDS011;61199;47.526;8.538;2023-04-25T12:16:55;3.80;;;1.87;;
73023;SDS011;61199;47.526;8.538;2023-04-25T12:19:24;3.00;;;1.93;;
73023;SDS011;61199;47.526;8.538;2023-04-25T12:21:51;3.77;;;2.07;;
73023;SDS011;61199;47.526;8.538;2023-04-25T12:24:25;2.33;;;1.50;;
73023;SDS011;61199;47.526;8.538;2023-04-25T12:27:03;3.47;;;2.00;;
73023;SDS011;61199;47.526;8.538;2023-04-25T12:29:32;2.73;;;2.10;;
73023;SDS011;61199;47.526;8.538;2023-04-25T12:32:14;2.73;;;1.90;;
73023;SDS011;61199;47.526;8.538;2023-04-25T12:34:41;4.73;;;2.27;;
73023;SDS011;61199;47.526;8.538;2023-04-25T12:37:08;3.30;;;2.07;;
73023;SDS011;61199;47.526;8.538;2023-04-25T12:39:34;4.00;;;2.10;;
73023;SDS011;61199;47.526;8.538;2023-04-25T12:42:00;2.53;;;1.43;;
73023;SDS011;61199;47.526;8.538;2023-04-25T12:44:27;5.13;;;1.77;;
73023;SDS011;61199;47.526;8.538;2023-04-25T12:46:53;3.17;;;1.57;;
73023;SDS011;61199;47.526;8.538;2023-04-25T12:49:21;2.23;;;1.87;;
73023;SDS011;61199;47.526;8.538;2023-04-25T12:51:47;4.50;;;1.80;;
73023;SDS011;61199;47.526;8.538;2023-04-25T12:54:15;2.60;;;1.60;;
73023;SDS011;61199;47.526;8.538;2023-04-25T12:56:41;3.23;;;1.93;;
73023;SDS011;61199;47.526;8.538;2023-04-25T12:59:08;2.70;;;1.93;;
73023;SDS011;61199;47.526;8.538;2023-04-25T13:01:35;3.67;;;1.47;;
73023;SDS011;61199;47.526;8.538;2023-04-25T13:04:03;3.60;;;1.70;;
73023;SDS011;61199;47.526;8.538;2023-04-25T13:06:30;9.40;;;1.70;;
73023;SDS011;61199;47.526;8.538;2023-04-25T13:08:57;4.97;;;1.43;;
73023;SDS011;61199;47.526;8.538;2023-04-25T13:11:23;3.67;;;1.30;;
73023;SDS011;61199;47.526;8.538;2023-04-25T13:13:49;6.10;;;1.30;;
73023;SDS011;61199;47.526;8.538;2023-04-25T13:16:16;2.93;;;1.37;;
73023;SDS011;61199;47.526;8.538;2023-04-25T13:18:43;2.00;;;1.40;;
73023;SDS011;61199;47.526;8.538;2023-04-25T13:21:10;3.13;;;1.20;;
73023;SDS011;61199;47.526;8.538;2023-04-25T13:23:37;2.00;;;1.17;;
73023;SDS011;61199;47.526;8.538;2023-04-25T13:26:04;1.83;;;1.27;;
73023;SDS011;61199;47.526;8.538;2023-04-25T13:28:30;1.73;;;0.87;;
73023;SDS011;61199;47.526;8.538;2023-04-25T13:30:56;2.83;;;1.43;;
73023;SDS011;61199;47.526;8.538;2023-04-25T13:33:23;3.10;;;1.43;;
73023;SDS011;61199;47.526;8.538;2023-04-25T13:35:50;1.27;;;0.87;;
73023;SDS011;61199;47.526;8.538;2023-04-25T13:38:21;2.83;;;1.57;;
73023;SDS011;61199;47.526;8.538;2023-04-25T13:40:48;2.80;;;1.30;;
73023;SDS011;61199;47.526;8.538;2023-04-25T13:43:15;2.47;;;1.60;;
73023;SDS011;61199;47.526;8.538;2023-04-25T13:45:42;2.53;;;1.50;;
73023;SDS011;61199;47.526;8.538;2023-04-25T13:48:08;1.87;;;1.50;;
73023;SDS011;61199;47.526;8.538;2023-04-25T13:50:35;4.37;;;2.33;;
73023;SDS011;61199;47.526;8.538;2023-04-25T13:53:01;3.37;;;1.70;;
73023;SDS011;61199;47.526;8.538;2023-04-25T13:55:28;3.60;;;1.90;;
73023;SDS011;61199;47.526;8.538;2023-04-25T13:57:54;11.23;;;2.20;;
73023;SDS011;61199;47.526;8.538;2023-04-25T14:00:21;3.60;;;1.97;;
73023;SDS011;61199;47.526;8.538;2023-04-25T14:02:47;3.27;;;1.93;;
73023;SDS011;61199;47.526;8.538;2023-04-25T14:05:16;5.40;;;1.87;;
73023;SDS011;61199;47.526;8.538;2023-04-25T14:07:42;3.53;;;1.83;;
73023;SDS011;61199;47.526;8.538;2023-04-25T14:10:09;2.70;;;2.10;;
73023;SDS011;61199;47.526;8.538;2023-04-25T14:12:35;5.80;;;2.40;;
73023;SDS011;61199;47.526;8.538;2023-04-25T14:15:02;8.87;;;2.30;;
73023;SDS011;61199;47.526;8.538;2023-04-25T14:17:29;3.10;;;2.20;;
73023;SDS011;61199;47.526;8.538;2023-04-25T14:19:56;3.33;;;1.70;;
73023;SDS011;61199;47.526;8.538;2023-04-25T14:22:22;2.77;;;2.10;;
73023;SDS011;61199;47.526;8.538;2023-04-25T14:24:48;4.63;;;2.37;;
73023;SDS011;61199;47.526;8.538;2023-04-25T14:27:15;5.53;;;2.10;;
73023;SDS011;61199;47.526;8.538;2023-04-25T14:29:41;3.37;;;1.90;;
73023;SDS011;61199;47.526;8.538;2023-04-25T14:32:07;3.87;;;2.43;;
73023;SDS011;61199;47.526;8.538;2023-04-25T14:34:34;2.37;;;1.90;;
73023;SDS011;61199;47.526;8.538;2023-04-25T14:37:01;4.57;;;2.20;;
73023;SDS011;61199;47.526;8.538;2023-04-25T14:39:27;3.90;;;2.00;;
73023;SDS011;61199;47.526;8.538;2023-04-25T14:41:54;4.17;;;1.70;;
73023;SDS011;61199;47.526;8.538;2023-04-25T14:44:20;4.60;;;2.20;;
73023;SDS011;61199;47.526;8.538;2023-04-25T14:46:46;2.80;;;1.57;;
73023;SDS011;61199;47.526;8.538;2023-04-25T14:49:13;3.10;;;2.00;;
73023;SDS011;61199;47.526;8.538;2023-04-25T14:51:39;5.47;;;1.90;;
73023;SDS011;61199;47.526;8.538;2023-04-25T14:54:06;5.43;;;2.13;;
73023;SDS011;61199;47.526;8.538;2023-04-25T14:56:32;4.00;;;1.77;;